LIBP/PSR METAR and TAF weather

Enter ICAO airport designator
Station Type Date Time Source
LIBP METAR 2019/08/19 06:50 UTC NOAA

LIBP 190650Z 19003KT 150V220 CAVOK 25/16 Q1016


Station Type Date Time Source
LIBP Decoded METAR 2019/08/19 06:50 UTC NOAA

Station name not available
Aug 19, 2019 - 02:50 AM EDT / 2019.08.19 0650 UTC
Wind: from the S (190 degrees) at 3 MPH (3 KT) (direction variable):0
Visibility: greater than 7 mile(s):0
Temperature: 77 F (25 C)
Dew Point: 60 F (16 C)
Relative Humidity: 57%
Pressure (altimeter): 30.00 in. Hg (1016 hPa)
ob: LIBP 190650Z 19003KT 150V220 CAVOK 25/16 Q1016
cycle: 7

Station Type Date Time Source
LIBP TAF 2019/08/19 06:21 UTC NOAA

TAF LIBP 190500Z 1906/2006 VRB04KT CAVOK
BECMG 1909/1911 06012KT
BECMG 1916/1918 VRB05KT

Example: see airport list